Time;durP1;ratioP1;P1;durP2;ratioP2;P2;SDS_P1;SDS_P2;PMS_P1;PMS_P2;Temp;Humidity;BMP_temperature;BMP_pressure;BME280_temperature;BME280_humidity;BME280_pressure;Samples;Min_cycle;Max_cycle;Signal;HPM_P1;HPM_P2
2024/01/13 00:01:06;;;;;;;16.92;10.93;;;;;;;1.59;100.00;102698.94;5072804;28;20061;-47
2024/01/13 00:03:35;;;;;;;15.77;10.38;;;;;;;1.60;100.00;102685.09;5073225;28;20043;-46
2024/01/13 00:06:04;;;;;;;17.45;11.35;;;;;;;1.61;100.00;102683.38;5073274;28;20202;-47
2024/01/13 00:08:33;;;;;;;18.90;12.55;;;;;;;1.61;100.00;102683.38;5073229;28;20052;-48
2024/01/13 00:11:05;;;;;;;18.40;12.43;;;;;;;1.62;100.00;102669.53;5073280;28;20044;-50
2024/01/13 00:13:37;;;;;;;21.30;12.82;;;;;;;1.60;100.00;102668.69;5072845;28;20090;-49
2024/01/13 00:16:06;;;;;;;20.30;13.52;;;;;;;1.61;100.00;102667.81;5072625;28;20056;-50
2024/01/13 00:18:33;;;;;;;19.17;12.98;;;;;;;1.60;100.00;102664.34;5072979;28;20048;-50
2024/01/13 00:21:08;;;;;;;18.30;13.20;;;;;;;1.60;100.00;102650.53;5067901;28;20120;-51
2024/01/13 00:23:37;;;;;;;18.73;12.60;;;;;;;1.60;100.00;102650.53;5069996;28;20372;-51
2024/01/13 00:26:06;;;;;;;21.05;13.93;;;;;;;1.62;100.00;102657.47;5069532;28;20048;-50
2024/01/13 00:28:35;;;;;;;16.08;11.85;;;;;;;1.63;100.00;102658.31;5070119;28;20119;-50
2024/01/13 00:31:08;;;;;;;18.42;12.63;;;;;;;1.63;100.00;102658.31;5072815;28;20115;-50
2024/01/13 00:33:36;;;;;;;16.90;12.32;;;;;;;1.63;100.00;102663.50;5072063;28;20055;-50
2024/01/13 00:36:06;;;;;;;16.98;11.43;;;;;;;1.64;100.00;102658.31;5072474;28;20495;-49
2024/01/13 00:38:37;;;;;;;18.50;12.63;;;;;;;1.64;100.00;102647.09;5072917;28;20053;-50
2024/01/13 00:41:06;;;;;;;20.83;13.32;;;;;;;1.63;100.00;102645.34;5072615;28;20036;-50
2024/01/13 00:43:36;;;;;;;20.40;12.98;;;;;;;1.61;100.00;102647.06;5070530;28;20044;-49
2024/01/13 00:46:05;;;;;;;18.25;13.00;;;;;;;1.63;100.00;102637.56;5068954;28;20468;-53
2024/01/13 00:48:35;;;;;;;21.02;14.05;;;;;;;1.64;100.00;102641.91;5068714;28;20152;-50
2024/01/13 00:51:10;;;;;;;21.50;14.73;;;;;;;1.65;100.00;102641.91;5068847;28;20036;-49
2024/01/13 00:53:39;;;;;;;20.30;13.75;;;;;;;1.66;100.00;102634.97;5070848;28;20403;-49
2024/01/13 00:56:08;;;;;;;20.30;14.10;;;;;;;1.67;100.00;102629.78;5069035;28;20072;-51
2024/01/13 00:58:37;;;;;;;22.65;14.98;;;;;;;1.68;100.00;102626.31;5068254;28;20056;-49
2024/01/13 01:01:12;;;;;;;22.30;15.55;;;;;;;1.68;100.00;102617.69;5068097;28;20052;-52
2024/01/13 01:03:46;;;;;;;21.95;14.80;;;;;;;1.68;100.00;102622.88;5069091;28;20103;-47
2024/01/13 01:06:16;;;;;;;20.88;14.52;;;;;;;1.67;100.00;102618.53;5071997;28;20403;-49
2024/01/13 01:08:48;;;;;;;23.73;14.77;;;;;;;1.69;100.00;102609.00;5071822;28;20045;-49
2024/01/13 01:11:17;;;;;;;26.52;16.10;;;;;;;1.69;100.00;102606.41;5071546;28;20044;-47
2024/01/13 01:13:45;;;;;;;24.23;16.13;;;;;;;1.69;100.00;102614.19;5071699;28;20045;-47
2024/01/13 01:16:14;;;;;;;26.77;17.40;;;;;;;1.70;100.00;102615.94;5071798;28;20079;-49
2024/01/13 01:18:42;;;;;;;29.42;18.23;;;;;;;1.73;100.00;102615.94;5071553;28;20036;-51
2024/01/13 01:21:17;;;;;;;27.33;17.23;;;;;;;1.72;100.00;102609.03;5071315;28;20036;-51
2024/01/13 01:23:49;;;;;;;29.77;17.77;;;;;;;1.73;100.00;102607.28;5070130;28;20040;-46
2024/01/13 01:26:18;;;;;;;29.90;17.98;;;;;;;1.74;100.00;102611.63;5071182;28;20044;-49
2024/01/13 01:28:46;;;;;;;30.42;18.27;;;;;;;1.73;100.00;102600.38;5070850;28;20068;-47
2024/01/13 01:31:14;;;;;;;30.17;17.52;;;;;;;1.71;100.00;102604.72;5071723;28;20048;-46
2024/01/13 01:33:43;;;;;;;30.52;18.70;;;;;;;1.72;100.00;102609.03;5071652;28;20454;-48
2024/01/13 01:36:12;;;;;;;32.53;19.42;;;;;;;1.71;100.00;102602.13;5068531;28;20453;-48
2024/01/13 01:38:42;;;;;;;33.55;19.42;;;;;;;1.71;100.00;102596.94;5071659;28;20044;-50
2024/01/13 01:41:14;;;;;;;34.75;20.27;;;;;;;1.73;100.00;102594.31;5071453;28;20066;-49
2024/01/13 01:43:47;;;;;;;30.30;18.42;;;;;;;1.72;100.00;102585.69;5071537;28;20131;-47
2024/01/13 01:46:17;;;;;;;33.80;19.00;;;;;;;1.74;100.00;102583.09;5071328;28;20566;-47
2024/01/13 01:48:47;;;;;;;31.45;19.00;;;;;;;1.76;100.00;102578.75;5071894;28;20040;-48
2024/01/13 01:51:17;;;;;;;32.65;18.80;;;;;;;1.75;100.00;102582.22;5071327;28;20037;-47
2024/01/13 01:53:48;;;;;;;33.85;19.63;;;;;;;1.73;100.00;102576.16;5071583;28;20040;-49
2024/01/13 01:56:20;;;;;;;33.80;18.92;;;;;;;1.74;100.00;102583.94;5071555;28;20535;-46
2024/01/13 01:58:50;;;;;;;32.30;19.38;;;;;;;1.72;100.00;102572.72;5071488;28;20056;-46
2024/01/13 02:01:20;;;;;;;34.55;19.55;;;;;;;1.75;100.00;102587.41;5068052;28;20138;-47
2024/01/13 02:03:49;;;;;;;34.42;18.77;;;;;;;1.74;100.00;102576.16;5067554;28;20056;-47
2024/01/13 02:06:18;;;;;;;34.85;19.65;;;;;;;1.73;100.00;102577.03;5071155;28;20379;-47
2024/01/13 02:08:48;;;;;;;34.92;19.58;;;;;;;1.73;100.00;102571.81;5069947;28;20512;-48
2024/01/13 02:11:17;;;;;;;38.42;19.45;;;;;;;1.74;100.00;102568.38;5068472;28;20037;-47
2024/01/13 02:13:46;;;;;;;33.05;17.60;;;;;;;1.73;100.00;102566.63;5068755;28;20047;-46
2024/01/13 02:16:16;;;;;;;31.58;18.13;;;;;;;1.73;100.00;102564.03;5071349;28;20056;-45
2024/01/13 02:18:44;;;;;;;33.40;18.35;;;;;;;1.73;100.00;102558.84;5071285;28;20079;-47
2024/01/13 02:21:14;;;;;;;29.42;16.58;;;;;;;1.76;100.00;102553.69;5071244;28;20575;-46
2024/01/13 02:23:46;;;;;;;28.80;17.27;;;;;;;1.78;100.00;102556.28;5069778;28;20057;-47
2024/01/13 02:26:14;;;;;;;29.38;17.50;;;;;;;1.76;100.00;102550.22;5071468;28;20064;-46
2024/01/13 02:28:42;;;;;;;27.90;16.88;;;;;;;1.75;100.00;102549.34;5071170;28;20061;-47
2024/01/13 02:31:17;;;;;;;27.25;16.13;;;;;;;1.72;100.00;102548.50;5071502;28;20519;-47
2024/01/13 02:33:52;;;;;;;29.55;16.25;;;;;;;1.71;100.00;102545.03;5071277;28;20739;-48
2024/01/13 02:36:23;;;;;;;26.38;14.63;;;;;;;1.76;100.00;102538.13;5070650;28;20052;-47
2024/01/13 02:38:54;;;;;;;22.55;14.45;;;;;;;1.74;100.00;102533.81;5071674;28;20044;-48
2024/01/13 02:41:23;;;;;;;23.40;13.95;;;;;;;1.74;100.00;102523.44;5074444;28;20055;-50
2024/01/13 02:43:52;;;;;;;24.42;13.43;;;;;;;1.75;100.00;102522.56;5074498;28;20127;-50
2024/01/13 02:46:20;;;;;;;23.08;12.82;;;;;;;1.75;100.00;102517.38;5074920;28;20502;-48
2024/01/13 02:48:52;;;;;;;21.45;13.38;;;;;;;1.74;100.00;102513.91;5074818;28;20049;-48
2024/01/13 02:51:21;;;;;;;23.23;13.55;;;;;;;1.73;100.00;102504.38;5074632;28;20116;-47
2024/01/13 02:53:51;;;;;;;22.15;13.48;;;;;;;1.74;100.00;102498.34;5074371;28;20127;-47
2024/01/13 02:56:24;;;;;;;20.77;11.90;;;;;;;1.76;100.00;102494.03;5074505;28;20050;-48
2024/01/13 02:58:53;;;;;;;20.90;12.40;;;;;;;1.76;100.00;102485.34;5073793;28;20131;-46
2024/01/13 03:01:21;;;;;;;20.95;12.35;;;;;;;1.78;100.00;102468.91;5071248;28;20504;-46
2024/01/13 03:03:50;;;;;;;19.38;12.00;;;;;;;1.76;100.00;102459.41;5070793;28;20052;-49
2024/01/13 03:06:23;;;;;;;19.05;11.45;;;;;;;1.77;100.00;102459.44;5074602;28;20123;-48
2024/01/13 03:08:54;;;;;;;18.10;10.02;;;;;;;1.78;100.00;102461.13;5074559;28;20051;-49
2024/01/13 03:11:25;;;;;;;16.95;9.82;;;;;;;1.77;100.00;102446.47;5074633;28;20086;-48
2024/01/13 03:13:55;;;;;;;16.45;9.93;;;;;;;1.80;100.00;102445.56;5074774;28;20090;-50
2024/01/13 03:16:24;;;;;;;15.75;9.15;;;;;;;1.77;100.00;102441.28;5075915;28;20058;-46
2024/01/13 03:18:52;;;;;;;14.38;9.27;;;;;;;1.78;100.00;102448.16;5088303;28;20686;-47
2024/01/13 03:21:24;;;;;;;17.33;9.55;;;;;;;1.79;100.00;102451.66;5094921;28;20560;-46
2024/01/13 03:23:52;;;;;;;14.90;9.48;;;;;;;1.80;100.00;102443.84;5094954;28;20119;-46
2024/01/13 03:26:21;;;;;;;16.02;9.68;;;;;;;1.79;100.00;102433.47;5094632;28;20505;-48
2024/01/13 03:28:50;;;;;;;15.88;9.13;;;;;;;1.80;100.00;102435.19;5093233;28;20052;-47
2024/01/13 03:31:21;;;;;;;15.35;9.75;;;;;;;1.80;100.00;102432.59;5094737;28;20046;-46
2024/01/13 03:33:50;;;;;;;13.45;8.35;;;;;;;1.80;100.00;102428.28;5094360;28;20036;-48
2024/01/13 03:36:18;;;;;;;16.52;9.38;;;;;;;1.80;100.00;102425.69;5094428;28;20101;-50
2024/01/13 03:38:47;;;;;;;16.55;9.35;;;;;;;1.81;100.00;102426.53;5094100;28;20055;-48
2024/01/13 03:41:18;;;;;;;13.88;9.07;;;;;;;1.81;100.00;102427.41;5094030;28;20048;-48
2024/01/13 03:43:47;;;;;;;16.40;8.93;;;;;;;1.82;100.00;102423.09;5092671;28;20410;-47
2024/01/13 03:46:17;;;;;;;15.30;9.50;;;;;;;1.83;100.00;102419.63;5092812;28;20047;-47
2024/01/13 03:48:45;;;;;;;18.33;10.13;;;;;;;1.83;100.00;102406.66;5089885;28;20074;-50
2024/01/13 03:51:17;;;;;;;18.27;10.15;;;;;;;1.79;100.00;102404.94;5090691;28;20043;-49
2024/01/13 03:53:45;;;;;;;17.25;10.40;;;;;;;1.78;100.00;102405.81;5092443;28;20507;-51
2024/01/13 03:56:14;;;;;;;17.30;9.80;;;;;;;1.81;100.00;102405.78;5074023;28;20094;-52
2024/01/13 03:58:42;;;;;;;18.50;10.20;;;;;;;1.80;100.00;102401.47;5073859;28;20123;-49
2024/01/13 04:01:10;;;;;;;21.13;11.55;;;;;;;1.78;100.00;102396.28;5070623;28;20060;-49
2024/01/13 04:03:40;;;;;;;19.80;10.98;;;;;;;1.81;100.00;102387.63;5067899;28;20097;-49
2024/01/13 04:06:08;;;;;;;20.23;11.85;;;;;;;1.80;100.00;102389.38;5072577;28;20046;-50
2024/01/13 04:08:39;;;;;;;21.20;11.80;;;;;;;1.80;100.00;102388.47;5073429;28;20405;-52
2024/01/13 04:11:09;;;;;;;22.38;12.30;;;;;;;1.78;100.00;102393.69;5070129;28;20384;-49
2024/01/13 04:13:38;;;;;;;24.48;13.82;;;;;;;1.80;100.00;102389.38;5070724;28;20041;-52
2024/01/13 04:16:07;;;;;;;24.55;14.20;;;;;;;1.86;100.00;102385.88;5072057;28;20106;-52
2024/01/13 04:18:36;;;;;;;24.35;13.80;;;;;;;1.82;100.00;102379.84;5072130;28;20087;-52
2024/01/13 04:21:09;;;;;;;27.50;14.32;;;;;;;1.78;100.00;102385.91;5073307;28;20076;-51
2024/01/13 04:23:50;;;;;;;24.63;15.20;;;;;;;1.79;100.00;102387.63;5070049;28;20044;-51
2024/01/13 04:26:20;;;;;;;26.38;14.30;;;;;;;1.82;100.00;102382.41;5068862;28;20054;-49
2024/01/13 04:28:48;;;;;;;24.48;14.85;;;;;;;1.83;100.00;102376.38;5071160;28;20037;-50
2024/01/13 04:31:17;;;;;;;27.35;16.10;;;;;;;1.83;100.00;102375.53;5073142;28;20067;-51
2024/01/13 04:33:45;;;;;;;28.60;16.52;;;;;;;1.83;100.00;102375.53;5073050;28;20036;-52
2024/01/13 04:36:15;;;;;;;27.33;16.50;;;;;;;1.81;100.00;102375.53;5073157;28;20047;-49
2024/01/13 04:38:44;;;;;;;25.80;15.70;;;;;;;1.83;100.00;102376.38;5072734;28;20111;-49
2024/01/13 04:41:13;;;;;;;28.77;16.85;;;;;;;1.82;100.00;102382.41;5069312;28;20122;-50
2024/01/13 04:43:41;;;;;;;29.20;17.00;;;;;;;1.84;100.00;102377.22;5068956;28;20037;-49
2024/01/13 04:46:10;;;;;;;29.10;17.38;;;;;;;1.85;100.00;102382.44;5072200;28;20094;-51
2024/01/13 04:48:42;;;;;;;31.65;18.17;;;;;;;1.85;100.00;102385.03;5071888;28;20051;-49
2024/01/13 04:51:10;;;;;;;26.23;17.27;;;;;;;1.87;100.00;102379.84;5069593;28;20969;-49
2024/01/13 04:53:40;;;;;;;27.50;17.02;;;;;;;1.85;100.00;102372.06;5069086;28;20506;-48
2024/01/13 04:56:09;;;;;;;28.42;18.90;;;;;;;1.90;100.00;102372.03;5069296;28;20036;-50
2024/01/13 04:58:39;;;;;;;29.90;19.10;;;;;;;1.88;100.00;102372.91;5068515;28;20045;-49
2024/01/13 05:01:07;;;;;;;29.50;17.52;;;;;;;1.86;100.00;102367.72;5071846;28;20048;-50
2024/01/13 05:03:36;;;;;;;27.80;18.27;;;;;;;1.87;100.00;102369.44;5071512;28;20041;-47
2024/01/13 05:06:05;;;;;;;27.50;17.80;;;;;;;1.86;100.00;102368.56;5071471;28;20082;-48
2024/01/13 05:08:33;;;;;;;27.92;18.75;;;;;;;1.83;100.00;102368.59;5068040;28;20076;-49
2024/01/13 05:11:03;;;;;;;28.00;17.95;;;;;;;1.84;100.00;102364.25;5068374;28;20111;-46
2024/01/13 05:13:31;;;;;;;28.73;18.08;;;;;;;1.88;100.00;102373.75;5072013;28;20086;-46
2024/01/13 05:15:59;;;;;;;30.13;18.65;;;;;;;1.91;100.00;102368.56;5072141;28;20094;-49
2024/01/13 05:18:28;;;;;;;31.58;18.50;;;;;;;1.93;100.00;102376.34;5072287;28;20098;-48
2024/01/13 05:20:56;;;;;;;27.75;17.48;;;;;;;1.89;100.00;102362.50;5072220;28;20090;-49
2024/01/13 05:23:24;;;;;;;29.17;18.58;;;;;;;1.92;100.00;102366.81;5072315;28;20135;-48
2024/01/13 05:25:52;;;;;;;28.60;17.95;;;;;;;1.92;100.00;102357.28;5069039;28;20406;-48
2024/01/13 05:28:22;;;;;;;30.67;18.88;;;;;;;1.90;100.00;102359.03;5069517;28;20139;-49
2024/01/13 05:30:50;;;;;;;28.42;17.90;;;;;;;1.89;100.00;102364.25;5072041;28;20119;-49
2024/01/13 05:33:18;;;;;;;31.33;18.48;;;;;;;1.89;100.00;102377.22;5072238;28;20037;-47
2024/01/13 05:35:47;;;;;;;27.05;16.95;;;;;;;1.87;100.00;102379.84;5072356;28;20497;-46
2024/01/13 05:38:15;;;;;;;29.88;17.75;;;;;;;1.86;100.00;102368.56;5072063;28;20052;-50
2024/01/13 05:40:44;;;;;;;30.67;18.60;;;;;;;1.89;100.00;102365.09;5072066;28;20551;-51
2024/01/13 05:43:12;;;;;;;26.80;17.50;;;;;;;1.91;100.00;102359.91;5070763;28;20102;-47
2024/01/13 05:45:43;;;;;;;27.33;18.08;;;;;;;1.90;100.00;102360.78;5071143;28;20048;-50
2024/01/13 05:48:11;;;;;;;28.38;18.00;;;;;;;1.91;100.00;102359.91;5071284;28;20040;-47
2024/01/13 05:50:40;;;;;;;31.38;17.83;;;;;;;1.89;100.00;102357.31;5071484;28;20049;-51
2024/01/13 05:53:08;;;;;;;30.15;18.20;;;;;;;1.90;100.00;102353.00;5071880;28;20118;-47
2024/01/13 05:55:37;;;;;;;27.67;18.15;;;;;;;1.89;100.00;102330.53;5070581;28;20668;-47
2024/01/13 05:58:05;;;;;;;30.23;19.00;;;;;;;1.88;100.00;102329.63;5071799;28;20075;-46
2024/01/13 06:00:34;;;;;;;25.13;17.20;;;;;;;1.83;100.00;102319.28;5071669;28;20122;-48
2024/01/13 06:03:04;;;;;;;26.92;18.27;;;;;;;1.84;100.00;102307.16;5071765;28;20056;-47
2024/01/13 06:05:32;;;;;;;26.95;17.45;;;;;;;1.83;100.00;102298.53;5071732;28;20744;-47
2024/01/13 06:08:01;;;;;;;27.70;17.98;;;;;;;1.81;100.00;102287.31;5070380;28;20059;-47
2024/01/13 06:10:30;;;;;;;25.15;17.40;;;;;;;1.82;100.00;102299.41;5071408;28;20053;-46
2024/01/13 06:12:59;;;;;;;24.45;16.77;;;;;;;1.81;100.00;102304.59;5071770;28;20080;-48
2024/01/13 06:15:28;;;;;;;23.83;15.48;;;;;;;1.82;100.00;102311.53;5074966;28;20087;-48
2024/01/13 06:17:57;;;;;;;24.08;16.20;;;;;;;1.82;100.00;102309.78;5075577;28;20447;-46
2024/01/13 06:20:27;;;;;;;27.90;15.98;;;;;;;1.84;100.00;102314.97;5075596;28;20126;-46
2024/01/13 06:22:56;;;;;;;23.38;15.00;;;;;;;1.84;100.00;102322.75;5075844;28;20041;-47
2024/01/13 06:25:25;;;;;;;24.95;15.45;;;;;;;1.84;100.00;102310.66;5075476;28;20036;-46
2024/01/13 06:27:53;;;;;;;24.38;15.60;;;;;;;1.85;100.00;102293.34;5075858;28;20552;-46
2024/01/13 06:30:21;;;;;;;22.63;14.65;;;;;;;1.85;100.00;102291.63;5075498;28;20475;-46
2024/01/13 06:32:50;;;;;;;23.13;15.23;;;;;;;1.86;100.00;102295.91;5075347;28;20208;-47
2024/01/13 06:35:18;;;;;;;21.40;14.48;;;;;;;1.88;100.00;102303.69;5074877;28;20041;-48
2024/01/13 06:37:48;;;;;;;21.67;14.55;;;;;;;1.92;100.00;102296.75;5074998;28;20479;-48
2024/01/13 06:40:16;;;;;;;20.50;13.80;;;;;;;1.90;100.00;102273.41;5075480;28;20476;-47
2024/01/13 06:42:44;;;;;;;21.63;14.38;;;;;;;1.92;100.00;102257.84;5075756;28;20044;-50
2024/01/13 06:45:13;;;;;;;22.05;13.88;;;;;;;1.92;100.00;102232.75;5075122;28;20060;-50
2024/01/13 06:47:41;;;;;;;21.60;14.05;;;;;;;1.89;100.00;102230.19;5075249;28;20369;-46
2024/01/13 06:50:10;;;;;;;22.00;13.98;;;;;;;1.90;100.00;102218.09;5075995;28;20387;-46
2024/01/13 06:52:38;;;;;;;21.60;14.32;;;;;;;1.89;100.00;102221.53;5075079;28;20127;-53
2024/01/13 06:55:09;;;;;;;23.48;13.55;;;;;;;1.86;100.00;102227.59;5074785;28;20043;-51
2024/01/13 06:57:37;;;;;;;25.00;14.88;;;;;;;1.90;100.00;102223.28;5070990;28;20540;-50
2024/01/13 07:00:07;;;;;;;21.88;13.23;;;;;;;1.89;100.00;102224.13;5071649;28;20048;-52
2024/01/13 07:02:36;;;;;;;25.27;14.73;;;;;;;1.92;100.00;102222.38;5073465;28;21024;-50
2024/01/13 07:05:06;;;;;;;24.35;13.30;;;;;;;1.92;100.00;102222.38;5071199;28;20122;-52
2024/01/13 07:07:34;;;;;;;23.65;13.45;;;;;;;1.88;100.00;102201.66;5071550;28;20048;-51
2024/01/13 07:10:03;;;;;;;22.23;12.73;;;;;;;1.89;100.00;102206.81;5083907;28;20056;-50
2024/01/13 07:12:33;;;;;;;23.77;12.93;;;;;;;1.89;100.00;102206.81;5089866;28;20055;-51
2024/01/13 07:15:04;;;;;;;23.67;13.35;;;;;;;1.88;100.00;102206.84;5089521;28;20122;-52
2024/01/13 07:17:32;;;;;;;22.85;12.05;;;;;;;1.89;100.00;102208.56;5077407;28;20048;-53
2024/01/13 07:20:01;;;;;;;22.40;12.45;;;;;;;1.88;100.00;102199.06;5074302;28;20559;-53
2024/01/13 07:22:30;;;;;;;24.67;13.70;;;;;;;1.92;100.00;102198.16;5072920;28;20048;-49
2024/01/13 07:24:58;;;;;;;23.70;12.25;;;;;;;1.93;100.00;102203.34;5073646;28;20375;-51
2024/01/13 07:27:26;;;;;;;22.48;11.75;;;;;;;1.96;100.00;102202.44;5072361;28;20044;-53
2024/01/13 07:29:56;;;;;;;24.30;11.88;;;;;;;1.97;100.00;102212.81;5070366;28;20123;-49
2024/01/13 07:32:29;;;;;;;24.70;13.48;;;;;;;1.96;100.00;102182.53;5070622;28;20044;-50
2024/01/13 07:34:57;;;;;;;25.75;13.40;;;;;;;1.91;100.00;102181.75;5068976;28;20037;-49
2024/01/13 07:37:26;;;;;;;26.17;13.50;;;;;;;1.90;100.00;102172.22;5071132;28;20036;-48
2024/01/13 07:39:54;;;;;;;22.55;12.40;;;;;;;1.90;100.00;102161.84;5070882;28;20048;-48
2024/01/13 07:42:22;;;;;;;25.83;12.50;;;;;;;1.93;100.00;102145.41;5074721;28;20246;-49
2024/01/13 07:44:50;;;;;;;28.33;14.23;;;;;;;1.93;100.00;102155.78;5074249;28;20033;-48
2024/01/13 07:47:20;;;;;;;25.48;13.93;;;;;;;1.96;100.00;102166.13;5070529;28;20056;-50
2024/01/13 07:49:48;;;;;;;26.30;13.35;;;;;;;1.97;100.00;102163.50;5070488;28;20052;-49
2024/01/13 07:52:17;;;;;;;26.27;13.60;;;;;;;1.95;100.00;102160.09;5070612;28;20068;-52
2024/01/13 07:54:45;;;;;;;27.67;13.38;;;;;;;1.96;100.00;102156.59;5072424;28;20049;-46
2024/01/13 07:57:14;;;;;;;26.20;13.68;;;;;;;2.01;100.00;102161.75;5073963;28;20072;-46
2024/01/13 07:59:42;;;;;;;27.83;13.77;;;;;;;2.00;100.00;102162.63;5073681;28;20474;-45
2024/01/13 08:02:10;;;;;;;26.67;13.70;;;;;;;1.99;100.00;102171.28;5073426;28;20053;-47
2024/01/13 08:04:43;;;;;;;26.73;12.80;;;;;;;1.99;100.00;102169.56;5073841;28;20127;-45
2024/01/13 08:07:11;;;;;;;26.20;13.05;;;;;;;2.00;100.00;102158.31;5073840;28;20563;-46
2024/01/13 08:09:40;;;;;;;28.02;13.90;;;;;;;2.01;100.00;102156.56;5073771;28;20538;-47
2024/01/13 08:12:08;;;;;;;26.80;13.55;;;;;;;2.02;100.00;102155.72;5073541;28;20389;-48
2024/01/13 08:14:36;;;;;;;27.60;13.57;;;;;;;2.06;100.00;102151.34;5073332;28;20052;-50
2024/01/13 08:17:05;;;;;;;27.70;14.70;;;;;;;2.08;100.00;102157.38;5072846;28;20529;-48
2024/01/13 08:19:34;;;;;;;29.25;13.98;;;;;;;2.06;100.00;102165.19;5073059;28;20048;-49
2024/01/13 08:22:04;;;;;;;31.42;15.73;;;;;;;2.06;100.00;102156.53;5072932;28;20122;-51
2024/01/13 08:24:32;;;;;;;28.58;14.70;;;;;;;2.05;100.00;102150.47;5073389;28;20479;-49
2024/01/13 08:27:01;;;;;;;29.88;16.27;;;;;;;2.04;100.00;102159.13;5072802;28;20044;-51
2024/01/13 08:29:29;;;;;;;31.65;16.30;;;;;;;2.03;100.00;102162.59;5072832;28;20057;-50
2024/01/13 08:31:57;;;;;;;32.97;15.95;;;;;;;2.05;100.00;102166.06;5073025;28;20531;-48
2024/01/13 08:34:26;;;;;;;32.22;16.50;;;;;;;2.03;100.00;102157.41;5072777;28;20079;-49
2024/01/13 08:36:54;;;;;;;32.63;15.73;;;;;;;2.05;100.00;102173.00;5072044;28;20561;-51
2024/01/13 08:39:24;;;;;;;33.50;16.35;;;;;;;2.07;100.00;102159.09;5072593;28;20044;-47
2024/01/13 08:41:52;;;;;;;34.10;17.05;;;;;;;2.08;100.00;102158.22;5072215;28;20072;-48
2024/01/13 08:44:23;;;;;;;33.22;16.38;;;;;;;2.12;100.00;102146.94;5072517;28;20047;-48
2024/01/13 08:46:51;;;;;;;32.58;17.05;;;;;;;2.16;100.00;102145.19;5069789;28;20119;-47
2024/01/13 08:49:19;;;;;;;29.50;15.80;;;;;;;2.14;100.00;102145.22;5068900;28;20051;-47
2024/01/13 08:51:47;;;;;;;33.60;17.40;;;;;;;2.12;100.00;102149.53;5070446;28;20063;-47
2024/01/13 08:54:16;;;;;;;30.05;16.25;;;;;;;2.14;100.00;102144.34;5072295;28;20119;-49
2024/01/13 08:56:45;;;;;;;30.63;16.23;;;;;;;2.18;100.00;102144.31;5072518;28;20037;-47
2024/01/13 08:59:13;;;;;;;29.65;15.77;;;;;;;2.22;100.00;102141.69;5071200;28;20048;-47
2024/01/13 09:01:42;;;;;;;30.85;15.88;;;;;;;2.24;100.00;102142.53;5072134;28;20438;-47
2024/01/13 09:04:10;;;;;;;29.42;16.00;;;;;;;2.23;100.00;102148.59;5072327;28;20052;-45
2024/01/13 09:06:40;;;;;;;28.50;15.88;;;;;;;2.24;100.00;102150.31;5071908;28;20041;-48
2024/01/13 09:09:10;;;;;;;30.60;17.45;;;;;;;2.28;100.00;102157.22;5072396;28;20483;-46
2024/01/13 09:11:41;;;;;;;30.73;16.05;;;;;;;2.25;100.00;102154.63;5072102;28;20458;-47
2024/01/13 09:14:16;;;;;;;29.38;16.75;;;;;;;2.27;100.00;102155.47;5072070;28;20072;-47
2024/01/13 09:16:45;;;;;;;31.10;16.98;;;;;;;2.24;100.00;102151.19;5071446;28;20037;-46
2024/01/13 09:19:14;;;;;;;29.00;16.10;;;;;;;2.30;100.00;102142.47;5070689;28;20519;-47
2024/01/13 09:21:43;;;;;;;29.35;17.65;;;;;;;2.30;100.00;102142.47;5067871;28;20049;-46
2024/01/13 09:24:16;;;;;;;28.63;17.02;;;;;;;2.29;100.00;102138.13;5068738;28;20044;-47
2024/01/13 09:26:46;;;;;;;27.27;15.70;;;;;;;2.30;100.00;102140.72;5071016;28;20068;-46
2024/01/13 09:29:20;;;;;;;27.88;16.08;;;;;;;2.29;100.00;102132.94;5070846;28;20032;-49
2024/01/13 09:31:49;;;;;;;27.27;15.90;;;;;;;2.32;100.00;102132.94;5071068;28;20098;-45
2024/01/13 09:34:19;;;;;;;25.77;15.18;;;;;;;2.33;100.00;102139.81;5071875;28;20048;-46
2024/01/13 09:36:48;;;;;;;25.30;14.90;;;;;;;2.33;100.00;102124.25;5070591;28;20048;-46
2024/01/13 09:39:21;;;;;;;25.50;15.15;;;;;;;2.33;100.00;102119.06;5071942;28;20056;-47
2024/01/13 09:41:53;;;;;;;26.40;14.77;;;;;;;2.33;100.00;102127.72;5072041;28;20044;-48
2024/01/13 09:44:25;;;;;;;23.98;14.80;;;;;;;2.36;100.00;102109.50;5071994;28;20049;-47
2024/01/13 09:46:56;;;;;;;27.98;15.20;;;;;;;2.33;100.00;102111.25;5072100;28;20041;-51
2024/01/13 09:49:27;;;;;;;26.25;15.20;;;;;;;2.35;100.00;102106.94;5071400;28;20055;-48
2024/01/13 09:51:57;;;;;;;27.33;14.80;;;;;;;2.39;100.00;102112.94;5071847;28;20044;-45
2024/01/13 09:54:27;;;;;;;27.60;16.67;;;;;;;2.36;100.00;102117.31;5071618;28;20098;-50
2024/01/13 09:56:57;;;;;;;28.02;15.15;;;;;;;2.38;100.00;102111.25;5071700;28;20060;-47
2024/01/13 09:59:29;;;;;;;24.92;14.48;;;;;;;2.41;100.00;102118.97;5070580;28;20045;-51
2024/01/13 10:02:02;;;;;;;22.40;14.05;;;;;;;2.40;100.00;102110.34;5071675;28;20056;-50
2024/01/13 10:04:36;;;;;;;25.45;13.73;;;;;;;2.41;100.00;102108.59;5071452;28;20082;-45
2024/01/13 10:07:08;;;;;;;22.67;12.77;;;;;;;2.39;100.00;102108.63;5069942;28;20095;-46
2024/01/13 10:09:37;;;;;;;22.58;12.70;;;;;;;2.43;100.00;102110.31;5069578;28;20052;-47
2024/01/13 10:12:07;;;;;;;22.30;12.02;;;;;;;2.41;100.00;102112.03;5067573;28;20052;-45
2024/01/13 10:14:43;;;;;;;19.83;11.15;;;;;;;2.44;100.00;102106.84;5069753;28;20048;-45
2024/01/13 10:17:12;;;;;;;17.02;10.02;;;;;;;2.43;100.00;102114.66;5071292;28;20043;-46
2024/01/13 10:19:43;;;;;;;17.95;9.95;;;;;;;2.42;100.00;102108.59;5071423;28;20102;-46
2024/01/13 10:22:15;;;;;;;16.88;9.65;;;;;;;2.47;100.00;102100.75;5071303;28;20079;-46
2024/01/13 10:24:44;;;;;;;17.80;9.05;;;;;;;2.49;100.00;102104.19;5069756;28;20052;-46
2024/01/13 10:27:12;;;;;;;17.27;9.75;;;;;;;2.50;100.00;102098.13;5071330;28;20048;-45
2024/01/13 10:29:43;;;;;;;16.83;9.80;;;;;;;2.50;100.00;102090.31;5068190;28;20439;-45
2024/01/13 10:32:12;;;;;;;17.13;9.95;;;;;;;2.47;100.00;102091.22;5067143;28;20080;-47
2024/01/13 10:34:46;;;;;;;16.42;9.57;;;;;;;2.54;100.00;102092.84;5068598;28;20057;-48
2024/01/13 10:37:16;;;;;;;16.98;10.02;;;;;;;2.52;100.00;102089.44;5071076;28;20095;-45
2024/01/13 10:39:44;;;;;;;18.60;11.63;;;;;;;2.51;100.00;102079.91;5071268;28;20090;-45
2024/01/13 10:42:15;;;;;;;20.92;11.98;;;;;;;2.51;100.00;102069.53;5068718;28;20064;-47
2024/01/13 10:44:47;;;;;;;;;;;;;;;2.52;100.00;102066.06;5068455;28;20541;-47
2024/01/13 10:47:18;;;;;;;20.17;11.57;;;;;;;2.54;100.00;102058.25;5071391;28;20299;-46
2024/01/13 10:49:52;;;;;;;19.88;11.13;;;;;;;2.53;100.00;102061.72;5071190;28;20471;-47
2024/01/13 10:52:30;;;;;;;21.55;11.85;;;;;;;2.53;100.00;102044.38;5068828;28;20117;-45
2024/01/13 10:55:03;;;;;;;19.42;11.88;;;;;;;2.58;100.00;102035.66;5068192;28;20115;-46
2024/01/13 10:57:34;;;;;;;21.05;12.50;;;;;;;2.56;100.00;102038.28;5068046;28;20072;-46
2024/01/13 11:00:07;;;;;;;24.70;14.48;;;;;;;2.54;100.00;102035.72;5069401;28;20106;-46
2024/01/13 11:02:37;;;;;;;23.67;13.63;;;;;;;2.53;100.00;102041.78;5074689;28;20885;-46
2024/01/13 11:05:08;;;;;;;22.17;12.32;;;;;;;2.52;100.00;102049.59;5074814;28;20041;-46
2024/01/13 11:07:41;;;;;;;23.98;13.38;;;;;;;2.51;100.00;102056.53;5074635;28;20052;-45
2024/01/13 11:10:14;;;;;;;23.58;14.38;;;;;;;2.53;100.00;102051.31;5073670;28;20388;-49
2024/01/13 11:12:49;;;;;;;22.33;13.60;;;;;;;2.52;100.00;102055.66;5074616;28;20052;-48
2024/01/13 11:15:27;;;;;;;23.38;13.93;;;;;;;2.54;100.00;102059.09;5074286;28;20052;-47
2024/01/13 11:18:00;;;;;;;27.80;13.88;;;;;;;2.58;100.00;102061.63;5074556;28;20056;-48
2024/01/13 11:20:28;;;;;;;23.63;13.05;;;;;;;2.52;100.00;102055.66;5074603;28;20044;-49